Stateline, NV (89449)

10:32 AM PST on December 18, 2014 (GMT -0800)
Stateline, NV | Change Station
CLOSE
Current Station
Personal Weather Station
Location: Stateline, NV
Elevation: 6535 ft
Nearby Weather Stations

Elev 6535 ft 38.97 °N, 119.92 °W | Updated 16 minutes ago

Partly Cloudy
Partly Cloudy
35.4 °F
Feels Like 35 °F
N
0.0
Wind Variable Wind from SSE
Gusts 2.2 mph

Today
High -- | Low -- °F
--% Chance of Precip.
Yesterday
High -- | Low -- °F
Precip. -- in
7:13 AM 4:39 PM
Waning Crescent, 13% visible
Pressure 30.11 in
Visibility 10.0 miles
Clouds Scattered Clouds 12000 ft
Windchill 35 °F
Dew Point 27 °F
Humidity 71%
Rainfall 1.37 in
Snow Depth Not available.
UV 1 out of 12
Pollen .30 out of 12
Air Quality Not available.
Flu Activity Not available.
METAR KTVL 181753Z AUTO 18004KT 10SM SCT120 03/M04 A3013 RMK AO2 SLP196 T00331039 10033 21028 53011

More Conditions Fewer Conditions

Pressure 30.11 in
Visibility 10.0 miles
Clouds Scattered Clouds 12000 ft
Windchill 35 °F
Dew Point 27 °F
Humidity 71%
Rainfall 1.37 in
Snow Depth Not available.
UV 1 out of 12
Pollen .30 out of 12
Air Quality Not available.
Flu Activity Not available.
METAR KTVL 181753Z AUTO 18004KT 10SM SCT120 03/M04 A3013 RMK AO2 SLP196 T00331039 10033 21028 53011

More Conditions Fewer Conditions

10-Day Weather Forecast

Almanac

Astronomy

Dec. 18, 2014 Rise Set
Actual Time
Civil Twilight
Nautical Twilight
Astronomical Twilight
Moon
Length of Visible Light
Length of Day
Tomorrow will be .
, % of the Moon is Illuminated

Today's Extremes

State Highs State Lows

Community

WunderPhotos

Upload Photos

1,778,973 photos uploaded!

WunderBlogs® & News

Nearby

Air Quality

  Air Quality AQ Index Pollutant
Not available.

Snow Depth

Station Depth Elevation

Earthquake Activity

City Distance Mag. Time & Date
Minimum magnitude displayed is 2.5.

Coastal Water Temperatures

Place Temperature

Nearby Weather Stations